Time;durP1;ratioP1;P1;durP2;ratioP2;P2;SDS_P1;SDS_P2;PMS_P1;PMS_P2;Temp;Humidity;BMP_temperature;BMP_pressure;BME280_temperature;BME280_humidity;BME280_pressure;Samples;Min_cycle;Max_cycle;Signal;HPM_P1;HPM_P2
2023/11/14 00:01:39;;;;;;;3.50;2.40;;;;;;;3.17;76.71;98277.67;104856;1263;71406;-27
2023/11/14 00:04:07;;;;;;;4.10;2.30;;;;;;;2.88;77.39;98272.42;104871;1266;61058;-27
2023/11/14 00:06:35;;;;;;;4.70;1.90;;;;;;;2.63;78.81;98271.20;104934;1269;61723;-27
2023/11/14 00:09:03;;;;;;;4.40;2.40;;;;;;;3.09;78.18;98270.41;105137;1269;71950;-27
2023/11/14 00:19:13;;;;;;;5.30;2.80;;;;;;;2.97;78.28;98257.48;102594;1290;600168;-26
2023/11/14 00:21:41;;;;;;;5.40;3.00;;;;;;;2.67;79.05;98252.45;104769;1266;61177;-27
2023/11/14 00:24:09;;;;;;;6.80;2.90;;;;;;;2.46;79.74;98254.61;104834;1271;61119;-27
2023/11/14 00:26:37;;;;;;;6.90;3.00;;;;;;;2.24;81.30;98253.48;104847;1271;72187;-27
2023/11/14 00:29:05;;;;;;;7.30;3.20;;;;;;;2.42;82.26;98255.68;105271;1259;73106;-27
2023/11/14 00:31:33;;;;;;;6.10;3.30;;;;;;;3.07;80.32;98250.70;105306;1262;72639;-27
2023/11/14 00:34:01;;;;;;;6.70;3.70;;;;;;;3.22;79.42;98245.64;103071;1260;3321735;-27
2023/11/14 00:36:29;;;;;;;5.60;3.80;;;;;;;3.10;79.32;98245.52;105440;1256;61068;-27
2023/11/14 00:38:59;;;;;;;5.90;3.20;;;;;;;2.92;79.28;98237.05;105323;1256;70967;-27
2023/11/14 00:41:27;;;;;;;5.80;3.90;;;;;;;2.69;79.64;98227.67;105475;1256;74303;-27
2023/11/14 00:43:55;;;;;;;7.90;4.20;;;;;;;2.41;80.94;98227.81;105472;1256;72459;-27
2023/11/14 00:46:23;;;;;;;4.50;2.80;;;;;;;2.36;81.76;98219.39;105426;1259;61099;-27
2023/11/14 00:48:51;;;;;;;6.70;3.80;;;;;;;2.91;80.20;98213.45;105366;1256;61251;-27
2023/11/14 00:51:19;;;;;;;10.50;3.80;;;;;;;3.07;78.66;98211.92;105492;1256;73042;-27
2023/11/14 00:53:51;;;;;;;4.60;3.40;;;;;;;2.87;78.48;98210.42;105477;1256;73082;-27
2023/11/14 00:56:19;;;;;;;6.10;3.30;;;;;;;2.55;79.54;98208.81;105271;1265;71383;-28
2023/11/14 00:58:46;;;;;;;6.20;3.80;;;;;;;2.28;80.34;98210.98;105492;1256;61162;-25
2023/11/14 01:07:49;;;;;;;4.10;2.90;;;;;;;2.68;80.54;98178.70;102590;1290;600236;-26
2023/11/14 01:10:17;;;;;;;4.30;2.80;;;;;;;2.91;78.83;98176.60;104956;1266;61084;-26
2023/11/14 01:12:45;;;;;;;3.90;2.90;;;;;;;2.69;78.43;98166.46;104848;1270;61261;-27
2023/11/14 01:15:13;;;;;;;5.70;2.80;;;;;;;2.32;78.99;98156.92;104854;1271;69919;-27
2023/11/14 01:17:41;;;;;;;6.10;3.20;;;;;;;1.94;79.60;98150.47;104907;1270;74336;-26
2023/11/14 01:20:11;;;;;;;5.10;3.10;;;;;;;1.58;80.28;98146.48;104913;1264;71514;-26
2023/11/14 01:22:39;;;;;;;6.10;2.80;;;;;;;1.22;81.06;98142.91;102444;1268;61870;-26
2023/11/14 01:32:49;;;;;;;7.20;3.60;;;;;;;1.91;81.72;98145.50;102565;1293;600043;-25
2023/11/14 01:43:02;;;;;;;6.70;2.70;;;;;;;1.34;86.96;98155.54;102494;1293;599405;-25
2023/11/14 01:45:31;;;;;;;6.30;3.60;;;;;;;2.03;85.16;98156.07;104733;1267;61129;-25
2023/11/14 01:47:59;;;;;;;11.70;4.20;;;;;;;2.71;82.51;98169.27;105258;1263;61120;-25
2023/11/14 01:50:27;;;;;;;9.10;4.60;;;;;;;2.87;80.75;98187.09;105259;1266;72051;-25
2023/11/14 01:52:56;;;;;;;10.70;4.10;;;;;;;2.67;80.35;98182.49;105248;1264;73194;-25
2023/11/14 01:55:25;;;;;;;8.70;4.20;;;;;;;2.41;80.78;98171.95;103397;1264;3363741;-25
2023/11/14 01:57:54;;;;;;;7.80;3.60;;;;;;;2.06;82.46;98148.41;105288;1264;61244;-25
2023/11/14 02:00:21;;;;;;;7.10;4.40;;;;;;;1.88;82.57;98125.56;105581;1256;61170;-26
2023/11/14 02:02:49;;;;;;;6.40;3.80;;;;;;;1.67;82.43;98105.75;105003;1258;72244;-27
2023/11/14 02:05:20;;;;;;;9.00;2.80;;;;;;;1.43;82.73;98095.86;105251;1257;74346;-27
2023/11/14 02:07:48;;;;;;;7.10;3.60;;;;;;;1.84;82.33;98093.61;105545;1257;71464;-27
2023/11/14 02:10:16;;;;;;;8.10;3.40;;;;;;;2.33;80.14;98079.96;105504;1263;61254;-27
2023/11/14 02:12:44;;;;;;;5.40;3.30;;;;;;;2.29;79.62;98065.64;105182;1263;61238;-27
2023/11/14 02:15:13;;;;;;;9.70;4.50;;;;;;;2.04;80.61;98057.43;105463;1261;71838;-27
2023/11/14 02:17:44;;;;;;;8.70;4.50;;;;;;;1.72;81.96;98046.05;105511;1262;74408;-27
2023/11/14 02:20:12;;;;;;;8.20;4.30;;;;;;;1.42;82.54;98047.16;105185;1258;72708;-27
2023/11/14 02:22:40;;;;;;;6.50;4.30;;;;;;;1.16;82.74;98068.69;105075;1257;61229;-27
2023/11/14 02:25:08;;;;;;;7.80;4.00;;;;;;;1.03;82.41;98074.95;105531;1260;61250;-27
2023/11/14 02:27:36;;;;;;;4.10;2.50;;;;;;;0.86;82.96;98077.92;105517;1260;71767;-27
2023/11/14 02:37:46;;;;;;;6.80;3.60;;;;;;;1.84;81.03;98044.79;102744;1291;600189;-25
2023/11/14 02:40:15;;;;;;;12.60;4.60;;;;;;;1.52;81.88;98022.45;104848;1264;61174;-27
2023/11/14 02:42:43;;;;;;;17.10;5.90;;;;;;;1.27;82.82;98021.03;104887;1264;61218;-28
2023/11/14 02:52:55;;;;;;;8.40;4.40;;;;;;;2.01;81.34;98038.78;102598;1293;600222;-25
2023/11/14 02:55:22;;;;;;;9.50;3.70;;;;;;;2.08;80.37;98034.25;104817;1267;61082;-25
2023/11/14 03:05:38;;;;;;;10.50;4.80;;;;;;;1.30;82.02;98013.19;102534;1292;600329;-25
2023/11/14 03:15:46;;;;;;;5.70;3.20;;;;;;;2.20;80.81;98007.16;102611;1295;600068;-24
2023/11/14 03:18:14;;;;;;;12.00;3.80;;;;;;;2.27;79.82;97999.34;104835;1267;61120;-25
2023/11/14 03:20:42;;;;;;;5.20;3.30;;;;;;;2.10;79.42;97997.31;104857;1269;61120;-25
2023/11/14 03:23:10;;;;;;;8.80;3.60;;;;;;;1.87;79.74;97993.64;105422;1260;72224;-25
2023/11/14 03:32:47;;;;;;;5.40;3.20;;;;;;;1.47;83.00;97991.60;102554;1292;600561;-25
2023/11/14 03:35:14;;;;;;;9.90;3.90;;;;;;;2.18;81.74;97985.52;104786;1267;61018;-25
2023/11/14 03:37:42;;;;;;;13.80;4.90;;;;;;;2.41;80.46;97976.85;104798;1267;61203;-25
2023/11/14 03:40:11;;;;;;;3.00;2.40;;;;;;;2.37;80.12;97970.77;104795;1267;72193;-25
2023/11/14 03:42:39;;;;;;;7.60;4.70;;;;;;;2.22;80.35;97962.98;104750;1267;74334;-25
2023/11/14 03:52:47;;;;;;;6.10;3.70;;;;;;;1.66;82.39;97956.10;102672;1292;599945;-25
2023/11/14 04:02:55;;;;;;;7.40;4.40;;;;;;;2.65;78.85;97933.00;102621;1290;600180;-25
2023/11/14 04:05:23;;;;;;;6.70;3.90;;;;;;;2.43;79.23;97935.41;105050;1267;61110;-27
2023/11/14 04:07:51;;;;;;;7.20;4.70;;;;;;;2.26;79.51;97927.26;104827;1266;61046;-27
2023/11/14 04:10:21;;;;;;;7.80;5.00;;;;;;;2.10;80.16;97921.65;104873;1269;70948;-27
2023/11/14 04:12:48;;;;;;;8.60;4.90;;;;;;;1.95;80.40;97916.09;104822;1267;74329;-27
2023/11/14 04:15:16;;;;;;;5.80;3.30;;;;;;;1.81;81.16;97905.67;105018;1266;72649;-25
2023/11/14 04:17:44;;;;;;;8.30;4.30;;;;;;;2.35;81.18;97894.29;103050;1257;61563;-25
2023/11/14 04:20:12;;;;;;;7.90;5.20;;;;;;;2.99;78.75;97880.94;105530;1260;61093;-25
2023/11/14 04:22:54;;;;;;;8.50;5.30;;;;;;;3.14;77.65;97885.27;104961;1267;71028;-25
2023/11/14 04:25:21;;;;;;;11.10;5.60;;;;;;;3.00;77.49;97876.48;104854;1261;74295;-27
2023/11/14 04:27:49;;;;;;;8.90;5.80;;;;;;;2.79;77.95;97876.34;104972;1267;71401;-27
2023/11/14 04:30:18;;;;;;;11.70;6.00;;;;;;;2.55;78.68;97871.77;105176;1267;61196;-27
2023/11/14 04:32:46;;;;;;;8.20;5.10;;;;;;;2.34;79.19;97866.00;104861;1263;61162;-27
2023/11/14 04:35:14;;;;;;;4.50;2.50;;;;;;;2.15;79.91;97878.50;105061;1262;73073;-27
2023/11/14 04:37:41;;;;;;;11.90;5.30;;;;;;;2.55;79.91;97878.95;105167;1263;74313;-27
2023/11/14 04:47:47;;;;;;;7.70;4.80;;;;;;;2.75;78.50;97864.27;102577;1295;599405;-25
2023/11/14 04:50:21;;;;;;;9.30;5.20;;;;;;;2.50;79.21;97869.21;104771;1266;61130;-26
2023/11/14 04:52:49;;;;;;;8.60;5.10;;;;;;;2.33;79.78;97862.44;105236;1267;61108;-26
2023/11/14 04:55:17;;;;;;;6.50;3.80;;;;;;;2.31;80.59;97862.52;105202;1265;72250;-26
2023/11/14 04:57:44;;;;;;;8.40;4.10;;;;;;;2.89;79.05;97849.08;104966;1267;72374;-26
2023/11/14 05:07:57;;;;;;;7.50;3.90;;;;;;;2.73;78.69;97836.98;102564;1292;600186;-24
2023/11/14 05:18:04;;;;;;;9.60;4.80;;;;;;;3.49;77.60;97831.86;102663;1293;600067;-24
2023/11/14 05:28:14;;;;;;;7.40;3.50;;;;;;;3.01;76.83;97831.42;102661;1291;600183;-24
2023/11/14 05:30:42;;;;;;;5.30;4.10;;;;;;;2.71;77.74;97832.28;104824;1267;61250;-25
2023/11/14 05:33:09;;;;;;;7.00;4.10;;;;;;;2.71;78.25;97835.21;104769;1272;61007;-26
2023/11/14 05:43:17;;;;;;;7.90;4.80;;;;;;;3.05;76.73;97834.23;102597;1292;600216;-26
2023/11/14 05:45:46;;;;;;;6.00;3.50;;;;;;;2.82;77.25;97843.70;104840;1270;61223;-25
2023/11/14 05:48:14;;;;;;;6.50;3.70;;;;;;;2.66;78.15;97847.77;104813;1267;61064;-26
2023/11/14 05:58:21;;;;;;;9.20;5.10;;;;;;;3.07;77.22;97874.60;102616;1292;599984;-25
2023/11/14 06:00:49;;;;;;;7.50;5.00;;;;;;;2.94;77.65;97871.41;104903;1269;61207;-27
2023/11/14 06:03:17;;;;;;;9.30;5.70;;;;;;;2.77;78.33;97864.09;104839;1270;61145;-27
2023/11/14 06:13:27;;;;;;;11.00;5.10;;;;;;;3.33;77.29;97836.64;102695;1289;600145;-24
2023/11/14 06:15:54;;;;;;;3.60;3.20;;;;;;;3.22;77.93;97819.37;105259;1266;61130;-25
2023/11/14 06:18:22;;;;;;;7.90;4.60;;;;;;;3.07;78.51;97812.53;105220;1260;61115;-26
2023/11/14 06:20:50;;;;;;;9.90;4.90;;;;;;;3.14;79.18;97797.30;105261;1266;70621;-27
2023/11/14 06:30:58;;;;;;;7.80;5.40;;;;;;;3.40;78.62;97701.77;102620;1294;600108;-25
2023/11/14 06:41:05;;;;;;;5.50;4.00;;;;;;;3.81;77.09;97712.86;102628;1293;599555;-26
2023/11/14 06:43:33;;;;;;;5.80;3.30;;;;;;;3.71;77.23;97707.60;104826;1267;61180;-27
2023/11/14 06:46:01;;;;;;;9.10;4.80;;;;;;;3.62;77.79;97692.29;104828;1267;61093;-27
2023/11/14 06:48:29;;;;;;;5.90;3.80;;;;;;;3.43;79.09;97691.93;104809;1267;72226;-27
2023/11/14 06:50:57;;;;;;;7.80;5.00;;;;;;;3.64;79.36;97716.50;104803;1269;72178;-27
2023/11/14 06:53:25;;;;;;;8.60;5.80;;;;;;;4.00;77.57;97723.98;104847;1272;72628;-28
2023/11/14 07:03:33;;;;;;;6.70;4.10;;;;;;;3.33;83.70;97765.92;102647;1293;600107;-27
2023/11/14 07:06:01;;;;;;;5.40;3.80;;;;;;;3.68;83.34;97769.78;104858;1271;61191;-29
2023/11/14 07:08:29;;;;;;;6.50;4.70;;;;;;;4.02;82.24;97762.64;104954;1264;61136;-29
2023/11/14 07:10:57;;;;;;;5.30;3.50;;;;;;;4.00;82.29;97759.66;104920;1270;72354;-29
2023/11/14 07:13:25;;;;;;;5.30;3.20;;;;;;;3.84;83.49;97743.67;104849;1270;73336;-29
2023/11/14 07:23:33;;;;;;;5.30;3.70;;;;;;;4.28;83.81;97708.23;102606;1293;600237;-24
2023/11/14 07:33:40;;;;;;;5.30;3.70;;;;;;;4.45;84.08;97693.89;102732;1290;601185;-23
2023/11/14 07:36:08;;;;;;;6.90;4.30;;;;;;;3.99;86.09;97686.27;105049;1265;61094;-23
2023/11/14 07:38:36;;;;;;;6.20;3.10;;;;;;;3.96;87.02;97687.65;104922;1270;61136;-23
2023/11/14 07:41:06;;;;;;;5.60;2.30;;;;;;;4.38;86.24;97687.79;104891;1264;72216;-23
2023/11/14 07:43:34;;;;;;;4.90;3.00;;;;;;;4.54;85.25;97680.48;104889;1271;74322;-23
2023/11/14 07:46:03;;;;;;;3.90;2.90;;;;;;;4.49;85.25;97676.80;104856;1267;72629;-22
2023/11/14 07:48:31;;;;;;;5.80;3.50;;;;;;;4.27;86.42;97680.84;102548;1268;61345;-23
2023/11/14 07:51:00;;;;;;;6.00;3.10;;;;;;;4.50;86.05;97675.46;105193;1269;72190;-24
2023/11/14 07:53:27;;;;;;;5.10;3.00;;;;;;;4.81;84.80;97662.79;105159;1269;73521;-23
2023/11/14 08:02:09;;;;;;;3.90;2.60;;;;;;;4.62;86.28;97654.73;102624;1294;600101;-22
2023/11/14 08:04:37;;;;;;;3.20;2.50;;;;;;;4.84;84.96;97655.98;104833;1267;61177;-22
2023/11/14 08:07:07;;;;;;;3.50;2.60;;;;;;;4.81;85.17;97652.40;104923;1271;61196;-22
2023/11/14 08:09:35;;;;;;;4.30;2.50;;;;;;;4.58;86.01;97659.54;104845;1266;71402;-23
2023/11/14 08:19:48;;;;;;;5.40;3.80;;;;;;;4.96;84.60;97648.11;102950;1290;600225;-21
2023/11/14 08:22:16;;;;;;;7.10;3.70;;;;;;;4.67;85.85;97647.40;104839;1272;61084;-22
2023/11/14 08:24:44;;;;;;;3.60;2.50;;;;;;;4.87;85.93;97639.23;105066;1269;61164;-21
2023/11/14 08:34:50;;;;;;;4.10;3.00;;;;;;;4.83;87.60;97635.59;102602;1292;599919;-21
2023/11/14 08:45:06;;;;;;;5.50;3.20;;;;;;;4.81;88.37;97615.63;102588;1292;599466;-22
2023/11/14 08:47:34;;;;;;;4.60;3.10;;;;;;;5.08;87.01;97602.27;104855;1266;61119;-21
2023/11/14 08:50:02;;;;;;;5.20;3.00;;;;;;;4.99;87.38;97596.85;104888;1265;61066;-21
2023/11/14 08:52:30;;;;;;;7.00;3.50;;;;;;;4.75;88.73;97588.10;104868;1267;74106;-23
2023/11/14 08:54:58;;;;;;;6.20;4.20;;;;;;;4.90;88.91;97585.65;104752;1266;73200;-22
2023/11/14 08:57:26;;;;;;;6.20;4.10;;;;;;;5.26;87.07;97582.27;104617;1267;73526;-22
2023/11/14 08:59:57;;;;;;;4.80;3.30;;;;;;;5.28;86.34;97575.57;102230;1263;3612882;-23
2023/11/14 09:02:25;;;;;;;7.80;4.00;;;;;;;5.19;87.12;97570.71;104881;1263;61117;-22
2023/11/14 09:04:53;;;;;;;6.60;4.70;;;;;;;4.93;88.51;97566.37;105051;1268;71018;-22
2023/11/14 09:07:21;;;;;;;5.10;3.20;;;;;;;5.17;88.18;97560.27;104970;1268;72642;-22
2023/11/14 09:09:49;;;;;;;3.80;3.00;;;;;;;5.22;87.86;97552.28;104962;1264;72268;-22
2023/11/14 09:12:19;;;;;;;4.50;3.00;;;;;;;5.02;88.83;97556.67;105779;1253;61202;-23
2023/11/14 09:14:47;;;;;;;4.60;2.60;;;;;;;4.94;89.31;97546.46;105856;1257;61156;-22
2023/11/14 09:17:15;;;;;;;4.10;3.10;;;;;;;5.12;89.34;97544.30;105849;1253;73054;-22
2023/11/14 09:19:46;;;;;;;4.00;2.80;;;;;;;5.15;89.37;97546.81;105670;1252;75680;-22
2023/11/14 09:22:14;;;;;;;4.30;3.20;;;;;;;5.26;88.74;97542.27;105694;1253;71447;-22
2023/11/14 09:24:43;;;;;;;3.80;2.90;;;;;;;4.87;91.01;97542.95;105874;1253;61158;-22
2023/11/14 09:27:12;;;;;;;6.10;3.80;;;;;;;5.17;90.27;97532.38;105863;1252;61019;-22
2023/11/14 09:29:39;;;;;;;4.50;2.90;;;;;;;5.27;89.55;97529.50;105740;1253;73039;-22
2023/11/14 09:32:08;;;;;;;4.90;2.70;;;;;;;5.19;90.22;97536.70;105762;1253;74292;-22
2023/11/14 09:34:39;;;;;;;5.00;2.40;;;;;;;5.19;90.25;97533.60;105653;1255;71761;-21
2023/11/14 09:37:07;;;;;;;4.20;2.40;;;;;;;5.14;91.25;97525.92;105685;1253;61153;-22
2023/11/14 09:39:35;;;;;;;4.40;2.90;;;;;;;5.55;89.26;97517.50;105775;1257;61233;-24
2023/11/14 09:42:04;;;;;;;4.10;2.60;;;;;;;5.48;89.65;97513.80;105729;1257;71050;-25
2023/11/14 09:44:32;;;;;;;4.90;3.50;;;;;;;5.26;91.02;97509.33;105668;1253;73280;-23
2023/11/14 09:54:40;;;;;;;2.90;2.20;;;;;;;5.60;90.81;97481.83;102621;1295;599397;-23
2023/11/14 09:57:12;;;;;;;9.30;3.90;;;;;;;5.37;91.84;97473.94;104845;1267;61180;-21
2023/11/14 09:59:42;;;;;;;3.40;2.40;;;;;;;5.60;91.38;97472.98;105289;1264;61066;-21
2023/11/14 10:02:10;;;;;;;4.40;3.00;;;;;;;5.99;89.41;97476.04;105287;1265;72227;-22
2023/11/14 10:04:39;;;;;;;5.70;3.00;;;;;;;6.07;88.62;97468.46;105500;1260;74285;-21
2023/11/14 10:07:08;;;;;;;4.70;3.30;;;;;;;5.66;91.33;97461.64;102882;1267;3532905;-22
2023/11/14 10:09:39;;;;;;;4.30;3.10;;;;;;;5.68;91.66;97457.90;105303;1257;61684;-21
2023/11/14 10:12:09;;;;;;;5.80;3.20;;;;;;;6.17;89.69;97459.90;105403;1257;61061;-21
2023/11/14 10:14:51;;;;;;;3.90;3.00;;;;;;;6.20;89.22;97454.42;105336;1264;70599;-21
2023/11/14 10:17:20;;;;;;;3.20;2.10;;;;;;;6.05;90.04;97448.16;105563;1258;73600;-21
2023/11/14 10:20:03;;;;;;;3.50;2.50;;;;;;;6.06;90.74;97448.11;105601;1257;72287;-21
2023/11/14 10:22:34;;;;;;;4.70;2.30;;;;;;;6.51;89.34;97445.70;105306;1262;61164;-21
2023/11/14 10:32:52;;;;;;;2.30;1.70;;;;;;;6.67;89.92;97447.33;102599;1295;600180;-20
2023/11/14 10:35:21;;;;;;;5.60;2.30;;;;;;;6.92;88.70;97447.17;104801;1268;61123;-21
2023/11/14 10:37:49;;;;;;;3.50;1.90;;;;;;;6.85;88.32;97449.48;104736;1270;61107;-21
2023/11/14 10:40:17;;;;;;;4.30;2.50;;;;;;;6.81;88.48;97450.02;104706;1271;74412;-21
2023/11/14 10:42:53;;;;;;;3.10;2.10;;;;;;;6.78;89.43;97452.70;104796;1266;74930;-22
2023/11/14 10:52:27;;;;;;;3.40;1.70;;;;;;;7.05;89.50;97446.49;103276;1288;600651;-21
2023/11/14 10:54:55;;;;;;;2.90;1.40;;;;;;;6.97;90.53;97452.02;104810;1272;61158;-22
2023/11/14 10:57:23;;;;;;;3.10;2.10;;;;;;;7.47;88.24;97444.32;108572;1265;60710;-20
2023/11/14 10:59:53;;;;;;;3.80;2.60;;;;;;;7.61;87.29;97443.73;108687;1265;70943;-20
2023/11/14 11:02:21;;;;;;;2.90;2.10;;;;;;;7.56;87.43;97443.50;108580;1265;73563;-20
2023/11/14 11:04:55;;;;;;;3.10;1.90;;;;;;;7.45;88.11;97452.13;108246;1267;3401421;-21
2023/11/14 11:07:23;;;;;;;2.00;1.50;;;;;;;7.56;88.81;97451.41;108689;1264;58784;-20
2023/11/14 11:09:51;;;;;;;2.70;2.00;;;;;;;8.01;87.10;97441.30;108747;1263;60072;-21
2023/11/14 11:12:19;;;;;;;3.70;1.90;;;;;;;8.19;85.63;97447.61;108781;1263;58729;-21
2023/11/14 11:14:49;;;;;;;3.30;1.90;;;;;;;8.06;86.25;97448.70;108857;1263;70921;-21
2023/11/14 11:17:35;;;;;;;4.10;2.60;;;;;;;7.95;86.86;97447.72;108747;1263;72854;-21
2023/11/14 11:20:06;;;;;;;3.80;1.80;;;;;;;7.94;87.68;97443.89;108768;1263;71457;-21
2023/11/14 11:23:10;;;;;;;4.10;2.30;;;;;;;8.44;86.04;97444.09;108689;1263;59075;-21
2023/11/14 11:25:43;;;;;;;3.40;1.80;;;;;;;8.51;84.95;97431.49;108618;1263;58944;-21
2023/11/14 11:28:20;;;;;;;;;;;;;;;8.40;85.35;97446.13;108796;1263;75035;-22
2023/11/14 11:31:07;;;;;;;3.40;1.60;;;;;;;8.14;86.94;97443.12;108844;1263;74318;-22
2023/11/14 11:33:36;;;;;;;2.50;1.70;;;;;;;8.45;86.17;97438.48;108651;1263;71426;-22
2023/11/14 11:36:26;;;;;;;4.00;2.20;;;;;;;8.80;84.74;97440.71;108595;1263;60859;-22
2023/11/14 11:38:55;;;;;;;4.80;2.80;;;;;;;8.78;84.54;97440.25;108627;1263;58741;-22
2023/11/14 11:41:23;;;;;;;4.50;2.10;;;;;;;8.61;85.32;97439.48;108891;1263;72308;-22
2023/11/14 11:44:04;;;;;;;2.20;1.50;;;;;;;8.49;86.92;97450.80;108911;1260;76754;-21
2023/11/14 11:46:32;;;;;;;2.90;2.00;;;;;;;8.83;85.45;97435.25;108825;1260;73502;-22
2023/11/14 11:49:12;;;;;;;4.90;1.90;;;;;;;9.33;83.63;97444.14;108896;1260;58888;-22
2023/11/14 11:51:46;;;;;;;4.90;2.00;;;;;;;8.96;83.96;97443.13;108877;1260;59244;-22
2023/11/14 11:54:26;;;;;;;2.70;1.90;;;;;;;8.82;84.93;97441.93;108836;1260;74044;-22
2023/11/14 11:57:19;;;;;;;5.30;1.90;;;;;;;8.59;85.94;97443.30;108914;1260;75863;-22
2023/11/14 11:59:47;;;;;;;2.20;1.70;;;;;;;8.89;86.00;97450.52;108773;1260;72645;-22
2023/11/14 12:02:18;;;;;;;3.10;1.90;;;;;;;9.17;84.61;97445.93;108887;1260;61576;-22
2023/11/14 12:04:48;;;;;;;4.10;1.70;;;;;;;9.03;84.38;97443.50;108741;1260;59147;-22
2023/11/14 12:07:17;;;;;;;3.60;2.00;;;;;;;8.89;85.42;97449.06;108904;1260;72872;-22
2023/11/14 12:09:47;;;;;;;4.50;2.30;;;;;;;8.94;85.76;97447.70;108918;1260;74153;-22
2023/11/14 12:12:15;;;;;;;6.20;1.70;;;;;;;9.15;84.71;97444.98;108900;1260;72641;-22
2023/11/14 12:14:43;;;;;;;3.40;2.10;;;;;;;9.39;83.05;97438.48;108871;1260;61700;-22
2023/11/14 12:17:10;;;;;;;3.70;2.10;;;;;;;9.58;82.38;97439.62;108893;1260;58812;-22
2023/11/14 12:19:38;;;;;;;3.70;2.20;;;;;;;9.55;82.79;97438.95;108910;1261;71867;-22
2023/11/14 12:22:07;;;;;;;4.20;2.30;;;;;;;9.49;82.85;97444.70;108895;1260;74366;-23
2023/11/14 12:24:35;;;;;;;2.70;1.70;;;;;;;9.54;83.71;97449.77;108869;1260;74532;-22
2023/11/14 12:27:03;;;;;;;5.90;2.00;;;;;;;9.92;81.54;97451.27;108893;1260;60052;-22
2023/11/14 12:29:31;;;;;;;2.60;1.90;;;;;;;9.97;80.52;97460.60;108899;1260;62124;-23
2023/11/14 12:31:59;;;;;;;3.50;1.80;;;;;;;9.95;81.01;97465.98;108845;1262;73131;-23
2023/11/14 12:34:29;;;;;;;3.50;2.00;;;;;;;9.74;81.47;97459.21;108951;1260;74826;-23
2023/11/14 12:37:10;;;;;;;3.30;1.50;;;;;;;9.45;82.41;97457.83;108889;1263;72638;-23
2023/11/14 12:39:38;;;;;;;2.80;1.30;;;;;;;9.34;84.03;97462.38;108757;1264;60848;-22
2023/11/14 12:42:06;;;;;;;4.40;2.10;;;;;;;9.73;82.21;97458.05;108874;1262;61130;-23
2023/11/14 12:44:34;;;;;;;4.50;1.80;;;;;;;9.81;81.57;97456.38;108875;1262;72038;-24
2023/11/14 12:47:08;;;;;;;7.30;2.00;;;;;;;9.59;82.19;97450.88;108755;1263;75069;-23
2023/11/14 12:49:47;;;;;;;5.00;2.30;;;;;;;9.47;82.84;97452.96;108725;1263;72886;-23
2023/11/14 12:52:15;;;;;;;4.50;1.80;;;;;;;9.37;83.68;97453.70;108688;1262;59893;-23
2023/11/14 12:54:42;;;;;;;2.00;1.40;;;;;;;9.83;81.76;97452.35;108943;1260;60612;-23
2023/11/14 12:57:10;;;;;;;3.60;1.70;;;;;;;10.09;80.80;97454.34;108940;1261;73347;-23
2023/11/14 12:59:42;;;;;;;3.00;1.70;;;;;;;10.10;80.89;97453.89;108885;1262;74668;-23
2023/11/14 13:02:10;;;;;;;3.60;1.50;;;;;;;10.01;81.30;97458.14;108776;1261;70492;-23
2023/11/14 13:04:38;;;;;;;5.40;2.00;;;;;;;9.83;81.77;97461.73;108919;1260;60052;-29
2023/11/14 13:07:06;;;;;;;3.90;1.30;;;;;;;9.94;82.14;97458.51;108910;1263;58676;-23
2023/11/14 13:09:34;;;;;;;3.80;1.60;;;;;;;10.22;80.36;97448.69;108779;1262;72664;-24
2023/11/14 13:12:03;;;;;;;3.70;1.70;;;;;;;10.21;80.28;97453.13;108870;1262;74195;-24
2023/11/14 13:14:30;;;;;;;6.00;1.80;;;;;;;10.20;79.94;97448.34;108881;1263;73265;-23
2023/11/14 13:16:58;;;;;;;2.50;1.40;;;;;;;9.91;81.50;97456.73;108773;1261;59724;-23
2023/11/14 13:19:26;;;;;;;3.00;1.20;;;;;;;9.78;82.37;97458.89;108916;1260;59075;-24
2023/11/14 13:21:54;;;;;;;2.70;1.40;;;;;;;10.15;81.09;97457.43;108968;1261;71098;-24
2023/11/14 13:24:21;;;;;;;3.40;1.10;;;;;;;10.18;80.27;97451.90;108812;1262;74345;-23
2023/11/14 13:26:49;;;;;;;2.50;1.30;;;;;;;10.17;80.48;97456.09;108938;1261;71447;-24
2023/11/14 13:29:17;;;;;;;4.30;1.50;;;;;;;9.97;81.78;97467.05;108840;1262;61190;-24
2023/11/14 13:33:20;;;;;;;1.50;1.10;;;;;;;9.67;82.69;97472.36;102957;1289;600870;-23
2023/11/14 13:35:48;;;;;;;5.40;1.80;;;;;;;9.89;81.68;97468.41;104834;1269;61193;-23
2023/11/14 13:38:16;;;;;;;3.50;1.50;;;;;;;10.09;80.68;97475.64;105051;1269;61200;-23
2023/11/14 13:40:44;;;;;;;3.00;1.50;;;;;;;10.09;80.29;97465.33;105021;1267;72317;-23
2023/11/14 13:43:13;;;;;;;5.20;1.50;;;;;;;9.93;80.34;97474.21;105492;1260;75955;-23
2023/11/14 13:45:41;;;;;;;3.70;1.60;;;;;;;9.78;81.21;97478.88;105523;1260;73134;-23
2023/11/14 13:48:09;;;;;;;4.70;1.60;;;;;;;9.84;81.71;97477.53;102986;1260;61202;-23
2023/11/14 13:58:19;;;;;;;5.40;1.50;;;;;;;9.93;80.47;97481.46;102593;1295;600216;-25
2023/11/14 14:00:50;;;;;;;9.10;1.40;;;;;;;10.01;80.63;97487.33;104823;1273;61654;-25
2023/11/14 14:03:19;;;;;;;3.70;1.40;;;;;;;10.37;78.80;97487.52;104895;1270;62895;-23
2023/11/14 14:05:47;;;;;;;2.40;1.50;;;;;;;10.46;78.03;97490.73;104847;1270;71458;-25
2023/11/14 14:08:15;;;;;;;5.00;1.40;;;;;;;10.28;78.22;97488.82;104776;1272;73850;-25
2023/11/14 14:10:43;;;;;;;6.40;1.70;;;;;;;10.18;78.86;97492.63;104785;1267;70708;-25
2023/11/14 14:13:12;;;;;;;1.70;1.20;;;;;;;9.89;80.12;97492.27;102366;1263;61803;-25
2023/11/14 14:15:40;;;;;;;4.40;1.70;;;;;;;10.06;80.35;97494.21;104843;1264;61191;-25
2023/11/14 14:18:09;;;;;;;2.70;1.50;;;;;;;10.37;78.07;97493.40;104897;1264;72699;-25
2023/11/14 14:20:37;;;;;;;6.30;1.70;;;;;;;10.30;77.98;97488.22;105153;1268;74498;-26
2023/11/14 14:23:05;;;;;;;3.80;1.50;;;;;;;10.10;79.06;97497.54;105058;1269;72307;-26
2023/11/14 14:25:34;;;;;;;3.90;1.60;;;;;;;9.97;79.39;97486.83;104987;1264;61125;-26
2023/11/14 14:28:02;;;;;;;4.40;1.40;;;;;;;9.83;79.98;97480.59;104868;1269;61129;-25
2023/11/14 14:30:30;;;;;;;3.00;1.40;;;;;;;10.00;79.50;97488.16;104931;1265;72905;-26
2023/11/14 14:32:58;;;;;;;2.80;1.40;;;;;;;9.91;79.85;97487.05;105044;1268;74998;-25
2023/11/14 14:35:27;;;;;;;5.60;1.60;;;;;;;9.74;80.42;97485.00;104906;1270;72111;-25
2023/11/14 14:37:54;;;;;;;4.70;1.70;;;;;;;9.52;81.60;97488.84;105091;1270;61171;-25
2023/11/14 14:40:22;;;;;;;3.30;1.40;;;;;;;9.37;82.21;97489.30;105060;1268;61158;-25
2023/11/14 14:42:50;;;;;;;3.50;1.20;;;;;;;9.26;82.78;97486.88;105035;1270;72195;-25
2023/11/14 14:45:19;;;;;;;4.20;1.40;;;;;;;9.67;81.18;97485.21;105017;1264;75322;-25
2023/11/14 14:47:47;;;;;;;3.80;1.40;;;;;;;9.79;79.84;97487.56;105029;1270;72914;-25
2023/11/14 14:50:15;;;;;;;4.20;1.50;;;;;;;9.66;80.04;97494.47;105027;1268;61254;-25
2023/11/14 14:52:43;;;;;;;4.30;1.50;;;;;;;9.48;81.02;97493.70;105014;1268;61151;-25
2023/11/14 14:55:11;;;;;;;3.80;1.50;;;;;;;9.27;81.75;97493.54;105070;1264;71732;-25
2023/11/14 14:57:39;;;;;;;4.90;1.40;;;;;;;9.24;82.46;97503.23;105018;1264;74712;-25
2023/11/14 15:00:18;;;;;;;4.20;1.50;;;;;;;9.72;80.44;97509.60;105387;1264;71454;-25
2023/11/14 15:02:46;;;;;;;3.30;1.60;;;;;;;9.83;79.57;97508.02;105234;1257;61143;-25
2023/11/14 15:05:19;;;;;;;7.60;1.80;;;;;;;9.78;79.63;97514.92;105223;1257;61720;-25
2023/11/14 15:07:50;;;;;;;5.10;1.70;;;;;;;9.55;80.80;97528.35;105269;1264;72918;-25
2023/11/14 15:10:18;;;;;;;8.40;1.50;;;;;;;9.39;81.38;97531.10;105244;1257;73643;-25
2023/11/14 15:12:46;;;;;;;2.40;1.30;;;;;;;9.31;82.43;97531.03;105346;1260;72852;-25
2023/11/14 15:15:14;;;;;;;3.80;1.60;;;;;;;9.77;80.96;97537.70;105422;1257;61279;-25
2023/11/14 15:17:42;;;;;;;4.40;1.50;;;;;;;10.02;79.51;97540.77;105461;1260;61269;-25
2023/11/14 15:20:14;;;;;;;5.40;1.20;;;;;;;9.91;79.25;97543.02;105409;1263;72644;-25
2023/11/14 15:22:42;;;;;;;5.90;1.70;;;;;;;9.71;79.69;97548.20;105263;1258;73866;-25
2023/11/14 15:25:10;;;;;;;4.80;1.50;;;;;;;9.51;81.11;97550.55;105018;1264;74596;-25
2023/11/14 15:27:38;;;;;;;3.50;1.20;;;;;;;9.34;82.20;97552.73;105402;1263;62450;-25
2023/11/14 15:30:07;;;;;;;3.60;1.60;;;;;;;9.74;81.57;97556.20;105263;1262;62181;-25
2023/11/14 15:32:35;;;;;;;6.10;1.70;;;;;;;10.02;79.80;97552.88;105084;1266;75344;-25
2023/11/14 15:35:04;;;;;;;4.30;1.40;;;;;;;9.88;80.05;97558.42;105343;1258;74037;-25
2023/11/14 15:37:34;;;;;;;4.10;1.40;;;;;;;9.69;80.59;97557.75;105266;1264;73262;-26